sensor_id;sensor_type;location;lat;lon;timestamp;temperature;humidity
52387;DHT22;38317;53.084;6.960;2022-09-12T00:00:38;14.60;99.90
52387;DHT22;38317;53.084;6.960;2022-09-12T00:03:04;14.50;99.90
52387;DHT22;38317;53.084;6.960;2022-09-12T00:05:29;14.50;99.90
52387;DHT22;38317;53.084;6.960;2022-09-12T00:07:57;14.60;99.90
52387;DHT22;38317;53.084;6.960;2022-09-12T00:10:23;14.60;99.90
52387;DHT22;38317;53.084;6.960;2022-09-12T00:12:49;14.50;99.90
52387;DHT22;38317;53.084;6.960;2022-09-12T00:15:15;14.50;99.90
52387;DHT22;38317;53.084;6.960;2022-09-12T00:17:41;14.50;99.90
52387;DHT22;38317;53.084;6.960;2022-09-12T00:20:07;14.50;99.90
52387;DHT22;38317;53.084;6.960;2022-09-12T00:22:34;14.50;99.90
52387;DHT22;38317;53.084;6.960;2022-09-12T00:25:00;14.50;99.90
52387;DHT22;38317;53.084;6.960;2022-09-12T00:27:27;14.40;99.90
52387;DHT22;38317;53.084;6.960;2022-09-12T00:29:53;14.30;99.90
52387;DHT22;38317;53.084;6.960;2022-09-12T00:32:19;14.30;99.90
52387;DHT22;38317;53.084;6.960;2022-09-12T00:34:45;14.20;99.90
52387;DHT22;38317;53.084;6.960;2022-09-12T00:37:11;14.20;99.90
52387;DHT22;38317;53.084;6.960;2022-09-12T00:39:37;14.10;99.90
52387;DHT22;38317;53.084;6.960;2022-09-12T00:42:04;14.10;99.90
52387;DHT22;38317;53.084;6.960;2022-09-12T00:47:01;14.10;99.90
52387;DHT22;38317;53.084;6.960;2022-09-12T00:49:48;14.00;99.90
52387;DHT22;38317;53.084;6.960;2022-09-12T00:52:51;14.00;99.90
52387;DHT22;38317;53.084;6.960;2022-09-12T00:55:39;13.90;99.90
52387;DHT22;38317;53.084;6.960;2022-09-12T00:58:18;13.90;99.90
52387;DHT22;38317;53.084;6.960;2022-09-12T01:00:45;13.90;99.90
52387;DHT22;38317;53.084;6.960;2022-09-12T01:03:14;13.90;99.90
52387;DHT22;38317;53.084;6.960;2022-09-12T01:05:45;13.90;99.90
52387;DHT22;38317;53.084;6.960;2022-09-12T01:08:13;13.80;99.90
52387;DHT22;38317;53.084;6.960;2022-09-12T01:10:39;13.80;99.90
52387;DHT22;38317;53.084;6.960;2022-09-12T01:13:08;13.80;99.90
52387;DHT22;38317;53.084;6.960;2022-09-12T01:15:38;13.80;99.90
52387;DHT22;38317;53.084;6.960;2022-09-12T01:28:53;13.70;99.90
52387;DHT22;38317;53.084;6.960;2022-09-12T01:32:07;13.60;99.90
52387;DHT22;38317;53.084;6.960;2022-09-12T01:37:20;13.60;99.90
52387;DHT22;38317;53.084;6.960;2022-09-12T01:39:59;13.60;99.90
52387;DHT22;38317;53.084;6.960;2022-09-12T01:42:33;13.60;99.90
52387;DHT22;38317;53.084;6.960;2022-09-12T01:45:33;13.60;99.90
52387;DHT22;38317;53.084;6.960;2022-09-12T01:48:23;13.50;99.90
52387;DHT22;38317;53.084;6.960;2022-09-12T01:50:58;13.50;99.90
52387;DHT22;38317;53.084;6.960;2022-09-12T01:53:29;13.50;99.90
52387;DHT22;38317;53.084;6.960;2022-09-12T01:58:46;13.40;99.90
52387;DHT22;38317;53.084;6.960;2022-09-12T02:01:25;13.50;99.90
52387;DHT22;38317;53.084;6.960;2022-09-12T02:04:20;13.40;99.90
52387;DHT22;38317;53.084;6.960;2022-09-12T02:07:57;13.40;99.90
52387;DHT22;38317;53.084;6.960;2022-09-12T02:10:17;13.40;99.90
52387;DHT22;38317;53.084;6.960;2022-09-12T02:12:57;13.40;99.90
52387;DHT22;38317;53.084;6.960;2022-09-12T02:15:40;13.40;99.90
52387;DHT22;38317;53.084;6.960;2022-09-12T02:18:07;13.30;99.90
52387;DHT22;38317;53.084;6.960;2022-09-12T02:20:39;13.30;99.90
52387;DHT22;38317;53.084;6.960;2022-09-12T02:23:10;13.40;99.90
52387;DHT22;38317;53.084;6.960;2022-09-12T02:25:43;13.40;99.90
52387;DHT22;38317;53.084;6.960;2022-09-12T02:28:21;13.30;99.90
52387;DHT22;38317;53.084;6.960;2022-09-12T02:37:20;13.30;99.90
52387;DHT22;38317;53.084;6.960;2022-09-12T02:39:51;13.30;99.90
52387;DHT22;38317;53.084;6.960;2022-09-12T02:42:20;13.30;99.90
52387;DHT22;38317;53.084;6.960;2022-09-12T02:44:46;13.30;99.90
52387;DHT22;38317;53.084;6.960;2022-09-12T02:47:43;13.30;99.90
52387;DHT22;38317;53.084;6.960;2022-09-12T02:50:10;13.30;99.90
52387;DHT22;38317;53.084;6.960;2022-09-12T02:52:36;13.30;99.90
52387;DHT22;38317;53.084;6.960;2022-09-12T02:55:05;13.30;99.90
52387;DHT22;38317;53.084;6.960;2022-09-12T02:57:31;13.30;99.90
52387;DHT22;38317;53.084;6.960;2022-09-12T02:59:59;13.30;99.90
52387;DHT22;38317;53.084;6.960;2022-09-12T03:05:28;13.30;99.90
52387;DHT22;38317;53.084;6.960;2022-09-12T03:22:32;13.30;99.90
52387;DHT22;38317;53.084;6.960;2022-09-12T03:25:18;13.40;99.90
52387;DHT22;38317;53.084;6.960;2022-09-12T03:28:09;13.40;99.90
52387;DHT22;38317;53.084;6.960;2022-09-12T03:30:38;13.40;99.90
52387;DHT22;38317;53.084;6.960;2022-09-12T03:33:03;13.40;99.90
52387;DHT22;38317;53.084;6.960;2022-09-12T03:35:29;13.40;99.90
52387;DHT22;38317;53.084;6.960;2022-09-12T03:37:55;13.40;99.90
52387;DHT22;38317;53.084;6.960;2022-09-12T03:40:21;13.40;99.90
52387;DHT22;38317;53.084;6.960;2022-09-12T03:42:46;13.40;99.90
52387;DHT22;38317;53.084;6.960;2022-09-12T03:45:12;13.40;99.90
52387;DHT22;38317;53.084;6.960;2022-09-12T03:47:38;13.40;99.90
52387;DHT22;38317;53.084;6.960;2022-09-12T03:50:05;13.40;99.90
52387;DHT22;38317;53.084;6.960;2022-09-12T03:52:31;13.40;99.90
52387;DHT22;38317;53.084;6.960;2022-09-12T03:54:56;13.30;99.90
52387;DHT22;38317;53.084;6.960;2022-09-12T03:57:22;13.30;99.90
52387;DHT22;38317;53.084;6.960;2022-09-12T03:59:48;13.40;99.90
52387;DHT22;38317;53.084;6.960;2022-09-12T04:02:15;13.30;99.90
52387;DHT22;38317;53.084;6.960;2022-09-12T04:04:41;13.30;99.90
52387;DHT22;38317;53.084;6.960;2022-09-12T04:07:08;13.30;99.90
52387;DHT22;38317;53.084;6.960;2022-09-12T04:09:34;13.30;99.90
52387;DHT22;38317;53.084;6.960;2022-09-12T04:12:00;13.30;99.90
52387;DHT22;38317;53.084;6.960;2022-09-12T04:14:26;13.30;99.90
52387;DHT22;38317;53.084;6.960;2022-09-12T04:16:52;13.30;99.90
52387;DHT22;38317;53.084;6.960;2022-09-12T04:19:18;13.30;99.90
52387;DHT22;38317;53.084;6.960;2022-09-12T04:21:43;13.30;99.90
52387;DHT22;38317;53.084;6.960;2022-09-12T04:24:09;13.30;99.90
52387;DHT22;38317;53.084;6.960;2022-09-12T04:26:35;13.30;99.90
52387;DHT22;38317;53.084;6.960;2022-09-12T04:29:00;13.20;99.90
52387;DHT22;38317;53.084;6.960;2022-09-12T04:31:26;13.30;99.90
52387;DHT22;38317;53.084;6.960;2022-09-12T04:33:56;13.30;99.90
52387;DHT22;38317;53.084;6.960;2022-09-12T04:36:23;13.20;99.90
52387;DHT22;38317;53.084;6.960;2022-09-12T04:38:50;13.30;99.90
52387;DHT22;38317;53.084;6.960;2022-09-12T04:43:42;13.30;99.90
52387;DHT22;38317;53.084;6.960;2022-09-12T04:46:11;13.30;99.90
52387;DHT22;38317;53.084;6.960;2022-09-12T04:48:38;13.30;99.90
52387;DHT22;38317;53.084;6.960;2022-09-12T04:51:12;13.30;99.90
52387;DHT22;38317;53.084;6.960;2022-09-12T04:53:39;13.20;99.90
52387;DHT22;38317;53.084;6.960;2022-09-12T04:56:07;13.30;99.90
52387;DHT22;38317;53.084;6.960;2022-09-12T04:58:33;13.30;99.90
52387;DHT22;38317;53.084;6.960;2022-09-12T05:01:11;13.30;99.90
52387;DHT22;38317;53.084;6.960;2022-09-12T05:03:37;13.30;99.90
52387;DHT22;38317;53.084;6.960;2022-09-12T05:06:11;13.30;99.90
52387;DHT22;38317;53.084;6.960;2022-09-12T05:08:37;13.30;99.90
52387;DHT22;38317;53.084;6.960;2022-09-12T05:11:09;13.30;99.90
52387;DHT22;38317;53.084;6.960;2022-09-12T05:13:35;13.30;99.90
52387;DHT22;38317;53.084;6.960;2022-09-12T05:16:03;13.30;99.90
52387;DHT22;38317;53.084;6.960;2022-09-12T05:18:33;13.20;99.90
52387;DHT22;38317;53.084;6.960;2022-09-12T05:21:03;13.30;99.90
52387;DHT22;38317;53.084;6.960;2022-09-12T05:23:30;13.30;99.90
52387;DHT22;38317;53.084;6.960;2022-09-12T05:25:57;13.30;99.90
52387;DHT22;38317;53.084;6.960;2022-09-12T05:28:27;13.30;99.90
52387;DHT22;38317;53.084;6.960;2022-09-12T05:31:12;13.40;99.90
52387;DHT22;38317;53.084;6.960;2022-09-12T05:33:40;13.40;99.90
52387;DHT22;38317;53.084;6.960;2022-09-12T05:36:10;13.50;99.90
52387;DHT22;38317;53.084;6.960;2022-09-12T05:38:36;13.50;99.90
52387;DHT22;38317;53.084;6.960;2022-09-12T05:41:07;13.60;99.90
52387;DHT22;38317;53.084;6.960;2022-09-12T05:43:33;13.60;99.90
52387;DHT22;38317;53.084;6.960;2022-09-12T05:46:03;13.70;99.90
52387;DHT22;38317;53.084;6.960;2022-09-12T05:48:29;13.70;99.90
52387;DHT22;38317;53.084;6.960;2022-09-12T05:51:03;13.70;99.90
52387;DHT22;38317;53.084;6.960;2022-09-12T05:53:30;13.80;99.90
52387;DHT22;38317;53.084;6.960;2022-09-12T05:56:20;13.80;99.90
52387;DHT22;38317;53.084;6.960;2022-09-12T05:58:56;13.90;99.90
52387;DHT22;38317;53.084;6.960;2022-09-12T06:01:23;13.90;99.90
52387;DHT22;38317;53.084;6.960;2022-09-12T06:03:51;13.90;99.90
52387;DHT22;38317;53.084;6.960;2022-09-12T06:06:19;14.00;99.90
52387;DHT22;38317;53.084;6.960;2022-09-12T06:08:47;14.00;99.90
52387;DHT22;38317;53.084;6.960;2022-09-12T06:11:25;14.10;99.90
52387;DHT22;38317;53.084;6.960;2022-09-12T06:13:52;14.10;99.90
52387;DHT22;38317;53.084;6.960;2022-09-12T06:16:25;14.10;99.90
52387;DHT22;38317;53.084;6.960;2022-09-12T06:18:54;14.10;99.90
52387;DHT22;38317;53.084;6.960;2022-09-12T06:21:21;14.20;99.90
52387;DHT22;38317;53.084;6.960;2022-09-12T06:23:47;14.20;99.90
52387;DHT22;38317;53.084;6.960;2022-09-12T06:26:15;14.20;99.90
52387;DHT22;38317;53.084;6.960;2022-09-12T06:28:43;14.30;99.90
52387;DHT22;38317;53.084;6.960;2022-09-12T06:31:30;14.30;99.90
52387;DHT22;38317;53.084;6.960;2022-09-12T06:33:59;14.30;99.90
52387;DHT22;38317;53.084;6.960;2022-09-12T06:36:27;14.40;99.90
52387;DHT22;38317;53.084;6.960;2022-09-12T06:38:59;14.40;99.90
52387;DHT22;38317;53.084;6.960;2022-09-12T06:41:26;14.40;99.90
52387;DHT22;38317;53.084;6.960;2022-09-12T06:43:53;14.50;99.90
52387;DHT22;38317;53.084;6.960;2022-09-12T06:46:19;14.60;99.90
52387;DHT22;38317;53.084;6.960;2022-09-12T06:48:45;14.60;99.90
52387;DHT22;38317;53.084;6.960;2022-09-12T06:51:14;14.70;99.90
52387;DHT22;38317;53.084;6.960;2022-09-12T06:53:41;14.70;99.90
52387;DHT22;38317;53.084;6.960;2022-09-12T06:56:13;14.80;99.90
52387;DHT22;38317;53.084;6.960;2022-09-12T06:58:40;14.80;99.90
52387;DHT22;38317;53.084;6.960;2022-09-12T07:01:08;14.80;99.90
52387;DHT22;38317;53.084;6.960;2022-09-12T07:03:35;14.90;99.90
52387;DHT22;38317;53.084;6.960;2022-09-12T07:06:09;15.00;99.90
52387;DHT22;38317;53.084;6.960;2022-09-12T07:08:36;15.00;99.90
52387;DHT22;38317;53.084;6.960;2022-09-12T07:11:23;15.00;99.90
52387;DHT22;38317;53.084;6.960;2022-09-12T07:13:51;15.10;99.90
52387;DHT22;38317;53.084;6.960;2022-09-12T07:16:17;15.10;99.90
52387;DHT22;38317;53.084;6.960;2022-09-12T07:18:44;15.20;99.90
52387;DHT22;38317;53.084;6.960;2022-09-12T07:21:13;15.20;99.90
52387;DHT22;38317;53.084;6.960;2022-09-12T07:23:39;15.20;99.90
52387;DHT22;38317;53.084;6.960;2022-09-12T07:26:08;15.30;99.90
52387;DHT22;38317;53.084;6.960;2022-09-12T07:28:35;15.30;99.90
52387;DHT22;38317;53.084;6.960;2022-09-12T07:31:06;15.40;99.90
52387;DHT22;38317;53.084;6.960;2022-09-12T07:33:32;15.40;99.90
52387;DHT22;38317;53.084;6.960;2022-09-12T07:36:03;15.40;99.90
52387;DHT22;38317;53.084;6.960;2022-09-12T07:38:29;15.50;99.90
52387;DHT22;38317;53.084;6.960;2022-09-12T07:40:55;15.50;99.90
52387;DHT22;38317;53.084;6.960;2022-09-12T07:43:22;15.50;99.90
52387;DHT22;38317;53.084;6.960;2022-09-12T07:45:47;15.60;99.90
52387;DHT22;38317;53.084;6.960;2022-09-12T07:48:13;15.60;99.90
52387;DHT22;38317;53.084;6.960;2022-09-12T07:50:39;15.70;99.90
52387;DHT22;38317;53.084;6.960;2022-09-12T07:53:05;15.80;99.90
52387;DHT22;38317;53.084;6.960;2022-09-12T07:55:31;15.80;99.90
52387;DHT22;38317;53.084;6.960;2022-09-12T07:57:57;15.90;99.90
52387;DHT22;38317;53.084;6.960;2022-09-12T08:00:23;15.90;99.90
52387;DHT22;38317;53.084;6.960;2022-09-12T08:02:53;16.00;99.90
52387;DHT22;38317;53.084;6.960;2022-09-12T08:05:19;16.00;99.90
52387;DHT22;38317;53.084;6.960;2022-09-12T08:07:46;16.10;99.90
52387;DHT22;38317;53.084;6.960;2022-09-12T08:10:12;16.30;99.90
52387;DHT22;38317;53.084;6.960;2022-09-12T08:12:37;16.40;99.90
52387;DHT22;38317;53.084;6.960;2022-09-12T08:15:04;16.50;99.90
52387;DHT22;38317;53.084;6.960;2022-09-12T08:17:29;16.60;99.90
52387;DHT22;38317;53.084;6.960;2022-09-12T08:19:55;16.60;99.90
52387;DHT22;38317;53.084;6.960;2022-09-12T08:22:22;16.70;99.90
52387;DHT22;38317;53.084;6.960;2022-09-12T08:24:48;16.80;99.90
52387;DHT22;38317;53.084;6.960;2022-09-12T08:27:14;16.70;99.90
52387;DHT22;38317;53.084;6.960;2022-09-12T08:29:40;16.70;99.90
52387;DHT22;38317;53.084;6.960;2022-09-12T08:32:07;16.80;99.90
52387;DHT22;38317;53.084;6.960;2022-09-12T08:34:33;16.80;99.90
52387;DHT22;38317;53.084;6.960;2022-09-12T08:36:59;16.70;99.90
52387;DHT22;38317;53.084;6.960;2022-09-12T08:39:24;16.80;99.90
52387;DHT22;38317;53.084;6.960;2022-09-12T08:42:00;16.90;99.90
52387;DHT22;38317;53.084;6.960;2022-09-12T08:47:00;17.10;99.90
52387;DHT22;38317;53.084;6.960;2022-09-12T08:49:29;17.20;99.90
52387;DHT22;38317;53.084;6.960;2022-09-12T08:52:02;17.40;99.90
52387;DHT22;38317;53.084;6.960;2022-09-12T08:54:29;17.50;99.90
52387;DHT22;38317;53.084;6.960;2022-09-12T08:57:00;17.50;99.90
52387;DHT22;38317;53.084;6.960;2022-09-12T08:59:38;17.60;99.90
52387;DHT22;38317;53.084;6.960;2022-09-12T09:05:39;17.80;99.90
52387;DHT22;38317;53.084;6.960;2022-09-12T09:11:25;18.00;99.90
52387;DHT22;38317;53.084;6.960;2022-09-12T09:17:25;18.20;99.90
52387;DHT22;38317;53.084;6.960;2022-09-12T09:22:48;18.40;99.90
52387;DHT22;38317;53.084;6.960;2022-09-12T09:25:20;18.40;99.90
52387;DHT22;38317;53.084;6.960;2022-09-12T09:27:55;18.40;99.90
52387;DHT22;38317;53.084;6.960;2022-09-12T09:30:22;18.40;99.90
52387;DHT22;38317;53.084;6.960;2022-09-12T09:32:51;18.40;99.90
52387;DHT22;38317;53.084;6.960;2022-09-12T09:35:28;18.40;99.90
52387;DHT22;38317;53.084;6.960;2022-09-12T09:38:23;18.50;99.90
52387;DHT22;38317;53.084;6.960;2022-09-12T09:41:15;18.60;99.90
52387;DHT22;38317;53.084;6.960;2022-09-12T09:43:43;18.60;99.90
52387;DHT22;38317;53.084;6.960;2022-09-12T09:46:09;18.70;99.90
52387;DHT22;38317;53.084;6.960;2022-09-12T09:48:40;18.70;99.90
52387;DHT22;38317;53.084;6.960;2022-09-12T09:51:07;18.80;99.90
52387;DHT22;38317;53.084;6.960;2022-09-12T09:53:53;18.90;99.90
52387;DHT22;38317;53.084;6.960;2022-09-12T09:56:37;19.00;99.90
52387;DHT22;38317;53.084;6.960;2022-09-12T09:59:15;19.20;99.90
52387;DHT22;38317;53.084;6.960;2022-09-12T10:01:45;19.40;99.90
52387;DHT22;38317;53.084;6.960;2022-09-12T10:06:45;19.80;99.90
52387;DHT22;38317;53.084;6.960;2022-09-12T10:11:39;20.00;99.90
52387;DHT22;38317;53.084;6.960;2022-09-12T10:14:33;20.00;99.90
52387;DHT22;38317;53.084;6.960;2022-09-12T10:17:02;20.10;99.90
52387;DHT22;38317;53.084;6.960;2022-09-12T10:19:37;20.30;99.90
52387;DHT22;38317;53.084;6.960;2022-09-12T10:22:05;20.50;99.90
52387;DHT22;38317;53.084;6.960;2022-09-12T10:24:35;20.60;99.90
52387;DHT22;38317;53.084;6.960;2022-09-12T10:30:02;20.90;99.90
52387;DHT22;38317;53.084;6.960;2022-09-12T10:32:35;21.10;99.90
52387;DHT22;38317;53.084;6.960;2022-09-12T10:35:05;21.30;99.90
52387;DHT22;38317;53.084;6.960;2022-09-12T10:37:37;21.40;99.90
52387;DHT22;38317;53.084;6.960;2022-09-12T10:40:29;21.60;99.90
52387;DHT22;38317;53.084;6.960;2022-09-12T10:43:01;21.80;99.90
52387;DHT22;38317;53.084;6.960;2022-09-12T10:45:28;22.00;99.90
52387;DHT22;38317;53.084;6.960;2022-09-12T10:48:39;22.10;99.90
52387;DHT22;38317;53.084;6.960;2022-09-12T10:50:45;22.30;99.90
52387;DHT22;38317;53.084;6.960;2022-09-12T10:53:15;22.50;99.90
52387;DHT22;38317;53.084;6.960;2022-09-12T11:01:00;22.90;99.90
52387;DHT22;38317;53.084;6.960;2022-09-12T11:26:31;23.20;99.90
52387;DHT22;38317;53.084;6.960;2022-09-12T11:29:29;23.20;99.90
52387;DHT22;38317;53.084;6.960;2022-09-12T11:34:51;23.50;99.90
52387;DHT22;38317;53.084;6.960;2022-09-12T11:42:40;23.70;99.90
52387;DHT22;38317;53.084;6.960;2022-09-12T11:45:21;23.80;99.90
52387;DHT22;38317;53.084;6.960;2022-09-12T11:47:52;23.90;99.90
52387;DHT22;38317;53.084;6.960;2022-09-12T11:50:30;24.00;99.90
52387;DHT22;38317;53.084;6.960;2022-09-12T11:53:02;24.00;99.90
52387;DHT22;38317;53.084;6.960;2022-09-12T11:55:43;24.00;99.90
52387;DHT22;38317;53.084;6.960;2022-09-12T11:58:11;24.10;99.90
52387;DHT22;38317;53.084;6.960;2022-09-12T12:00:49;24.20;99.90
52387;DHT22;38317;53.084;6.960;2022-09-12T12:03:40;24.30;99.90
52387;DHT22;38317;53.084;6.960;2022-09-12T12:06:29;24.20;99.90
52387;DHT22;38317;53.084;6.960;2022-09-12T12:08:56;24.20;99.90
52387;DHT22;38317;53.084;6.960;2022-09-12T12:11:52;24.10;99.90
52387;DHT22;38317;53.084;6.960;2022-09-12T12:14:19;24.20;99.90
52387;DHT22;38317;53.084;6.960;2022-09-12T12:16:46;24.20;99.90
52387;DHT22;38317;53.084;6.960;2022-09-12T12:21:46;24.40;99.90
52387;DHT22;38317;53.084;6.960;2022-09-12T12:24:21;24.40;99.90
52387;DHT22;38317;53.084;6.960;2022-09-12T12:27:00;24.40;99.90
52387;DHT22;38317;53.084;6.960;2022-09-12T12:29:37;24.40;99.90
52387;DHT22;38317;53.084;6.960;2022-09-12T12:34:42;24.60;99.90
52387;DHT22;38317;53.084;6.960;2022-09-12T12:52:53;24.50;99.90
52387;DHT22;38317;53.084;6.960;2022-09-12T13:03:31;24.80;99.90
52387;DHT22;38317;53.084;6.960;2022-09-12T13:06:04;24.90;99.90
52387;DHT22;38317;53.084;6.960;2022-09-12T13:08:39;25.10;99.90
52387;DHT22;38317;53.084;6.960;2022-09-12T13:11:31;25.10;99.90
52387;DHT22;38317;53.084;6.960;2022-09-12T13:14:06;25.10;99.90
52387;DHT22;38317;53.084;6.960;2022-09-12T13:16:39;25.30;98.90
52387;DHT22;38317;53.084;6.960;2022-09-12T13:19:13;25.20;97.90
52387;DHT22;38317;53.084;6.960;2022-09-12T13:21:54;25.10;98.20
52387;DHT22;38317;53.084;6.960;2022-09-12T13:24:22;25.10;97.30
52387;DHT22;38317;53.084;6.960;2022-09-12T13:26:48;25.00;97.40
52387;DHT22;38317;53.084;6.960;2022-09-12T13:29:19;24.90;97.60
52387;DHT22;38317;53.084;6.960;2022-09-12T13:31:51;24.80;97.70
52387;DHT22;38317;53.084;6.960;2022-09-12T13:34:21;24.70;97.50
52387;DHT22;38317;53.084;6.960;2022-09-12T13:39:56;24.70;96.90
52387;DHT22;38317;53.084;6.960;2022-09-12T13:45:18;24.80;97.30
52387;DHT22;38317;53.084;6.960;2022-09-12T13:47:53;24.80;97.60
52387;DHT22;38317;53.084;6.960;2022-09-12T13:50:24;24.80;96.10
52387;DHT22;38317;53.084;6.960;2022-09-12T13:52:56;24.70;95.60
52387;DHT22;38317;53.084;6.960;2022-09-12T13:55:27;24.70;95.60
52387;DHT22;38317;53.084;6.960;2022-09-12T13:58:04;24.60;95.10
52387;DHT22;38317;53.084;6.960;2022-09-12T14:00:31;24.60;95.60
52387;DHT22;38317;53.084;6.960;2022-09-12T14:02:58;24.60;95.70
52387;DHT22;38317;53.084;6.960;2022-09-12T14:05:47;24.50;96.50
52387;DHT22;38317;53.084;6.960;2022-09-12T14:08:19;24.50;96.70
52387;DHT22;38317;53.084;6.960;2022-09-12T14:10:49;24.50;96.20
52387;DHT22;38317;53.084;6.960;2022-09-12T14:13:24;24.50;96.20
52387;DHT22;38317;53.084;6.960;2022-09-12T14:15:52;24.50;95.30
52387;DHT22;38317;53.084;6.960;2022-09-12T14:18:27;24.40;96.50
52387;DHT22;38317;53.084;6.960;2022-09-12T14:20:55;24.50;96.20
52387;DHT22;38317;53.084;6.960;2022-09-12T14:23:32;24.50;96.60
52387;DHT22;38317;53.084;6.960;2022-09-12T14:26:01;24.50;96.40
52387;DHT22;38317;53.084;6.960;2022-09-12T14:28:28;24.50;96.80
52387;DHT22;38317;53.084;6.960;2022-09-12T14:31:06;24.50;96.80
52387;DHT22;38317;53.084;6.960;2022-09-12T14:33:51;24.50;96.90
52387;DHT22;38317;53.084;6.960;2022-09-12T14:36:26;24.50;96.70
52387;DHT22;38317;53.084;6.960;2022-09-12T14:39:05;24.50;96.40
52387;DHT22;38317;53.084;6.960;2022-09-12T14:41:36;24.40;96.20
52387;DHT22;38317;53.084;6.960;2022-09-12T14:44:07;24.40;96.30
52387;DHT22;38317;53.084;6.960;2022-09-12T14:46:37;24.30;96.70
52387;DHT22;38317;53.084;6.960;2022-09-12T14:57:54;24.00;97.70
52387;DHT22;38317;53.084;6.960;2022-09-12T14:59:49;24.00;97.50
52387;DHT22;38317;53.084;6.960;2022-09-12T15:02:18;23.90;97.70
52387;DHT22;38317;53.084;6.960;2022-09-12T15:04:58;23.90;97.70
52387;DHT22;38317;53.084;6.960;2022-09-12T15:10:21;24.10;97.30
52387;DHT22;38317;53.084;6.960;2022-09-12T15:12:48;24.10;97.20
52387;DHT22;38317;53.084;6.960;2022-09-12T15:15:19;24.20;96.80
52387;DHT22;38317;53.084;6.960;2022-09-12T15:17:45;24.20;97.00
52387;DHT22;38317;53.084;6.960;2022-09-12T15:20:12;24.20;97.30
52387;DHT22;38317;53.084;6.960;2022-09-12T15:22:39;24.20;97.10
52387;DHT22;38317;53.084;6.960;2022-09-12T15:25:06;24.10;97.50
52387;DHT22;38317;53.084;6.960;2022-09-12T15:27:32;24.00;96.80
52387;DHT22;38317;53.084;6.960;2022-09-12T15:29:58;23.90;97.00
52387;DHT22;38317;53.084;6.960;2022-09-12T15:32:25;23.90;97.20
52387;DHT22;38317;53.084;6.960;2022-09-12T15:34:52;23.90;97.20
52387;DHT22;38317;53.084;6.960;2022-09-12T15:37:19;23.80;97.50
52387;DHT22;38317;53.084;6.960;2022-09-12T15:39:46;23.80;97.70
52387;DHT22;38317;53.084;6.960;2022-09-12T15:42:13;23.80;97.60
52387;DHT22;38317;53.084;6.960;2022-09-12T15:44:40;23.80;97.50
52387;DHT22;38317;53.084;6.960;2022-09-12T15:47:09;23.80;97.90
52387;DHT22;38317;53.084;6.960;2022-09-12T15:49:36;23.80;97.70
52387;DHT22;38317;53.084;6.960;2022-09-12T15:52:01;23.80;97.00
52387;DHT22;38317;53.084;6.960;2022-09-12T15:54:27;23.80;97.30
52387;DHT22;38317;53.084;6.960;2022-09-12T15:56:53;23.80;97.20
52387;DHT22;38317;53.084;6.960;2022-09-12T15:59:19;23.70;97.10
52387;DHT22;38317;53.084;6.960;2022-09-12T16:01:45;23.60;96.80
52387;DHT22;38317;53.084;6.960;2022-09-12T16:04:25;23.50;97.00
52387;DHT22;38317;53.084;6.960;2022-09-12T16:06:52;23.40;97.40
52387;DHT22;38317;53.084;6.960;2022-09-12T16:09:19;23.40;97.80
52387;DHT22;38317;53.084;6.960;2022-09-12T16:11:46;23.20;98.10
52387;DHT22;38317;53.084;6.960;2022-09-12T16:14:18;23.20;98.70
52387;DHT22;38317;53.084;6.960;2022-09-12T16:16:51;23.20;99.00
52387;DHT22;38317;53.084;6.960;2022-09-12T16:19:18;23.20;98.60
52387;DHT22;38317;53.084;6.960;2022-09-12T16:21:44;23.20;98.50
52387;DHT22;38317;53.084;6.960;2022-09-12T16:24:10;23.20;98.20
52387;DHT22;38317;53.084;6.960;2022-09-12T16:26:35;23.20;98.00
52387;DHT22;38317;53.084;6.960;2022-09-12T16:29:01;23.20;98.20
52387;DHT22;38317;53.084;6.960;2022-09-12T16:31:27;23.20;98.00
52387;DHT22;38317;53.084;6.960;2022-09-12T16:33:53;23.20;97.80
52387;DHT22;38317;53.084;6.960;2022-09-12T16:36:20;23.20;98.00
52387;DHT22;38317;53.084;6.960;2022-09-12T16:38:48;23.20;97.80
52387;DHT22;38317;53.084;6.960;2022-09-12T16:41:16;23.20;97.60
52387;DHT22;38317;53.084;6.960;2022-09-12T16:43:43;23.10;97.70
52387;DHT22;38317;53.084;6.960;2022-09-12T16:46:24;23.10;98.20
52387;DHT22;38317;53.084;6.960;2022-09-12T16:48:52;23.00;98.50
52387;DHT22;38317;53.084;6.960;2022-09-12T16:51:24;22.90;98.80
52387;DHT22;38317;53.084;6.960;2022-09-12T16:53:50;22.90;98.90
52387;DHT22;38317;53.084;6.960;2022-09-12T16:56:17;22.80;99.10
52387;DHT22;38317;53.084;6.960;2022-09-12T16:58:43;22.70;99.20
52387;DHT22;38317;53.084;6.960;2022-09-12T17:01:13;22.60;99.50
52387;DHT22;38317;53.084;6.960;2022-09-12T17:03:39;22.60;99.80
52387;DHT22;38317;53.084;6.960;2022-09-12T17:06:09;22.40;99.70
52387;DHT22;38317;53.084;6.960;2022-09-12T17:08:37;22.40;99.90
52387;DHT22;38317;53.084;6.960;2022-09-12T17:11:06;22.30;99.90
52387;DHT22;38317;53.084;6.960;2022-09-12T17:13:32;22.30;99.90
52387;DHT22;38317;53.084;6.960;2022-09-12T17:15:59;22.30;99.90
52387;DHT22;38317;53.084;6.960;2022-09-12T17:18:25;22.20;99.90
52387;DHT22;38317;53.084;6.960;2022-09-12T17:20:51;22.20;99.90
52387;DHT22;38317;53.084;6.960;2022-09-12T17:23:17;22.10;99.90
52387;DHT22;38317;53.084;6.960;2022-09-12T17:25:47;22.00;99.90
52387;DHT22;38317;53.084;6.960;2022-09-12T17:28:14;22.00;99.90
52387;DHT22;38317;53.084;6.960;2022-09-12T17:30:40;21.90;99.90
52387;DHT22;38317;53.084;6.960;2022-09-12T17:33:06;21.90;99.90
52387;DHT22;38317;53.084;6.960;2022-09-12T17:35:36;21.80;99.90
52387;DHT22;38317;53.084;6.960;2022-09-12T17:38:02;21.50;99.90
52387;DHT22;38317;53.084;6.960;2022-09-12T17:40:28;21.70;99.90
52387;DHT22;38317;53.084;6.960;2022-09-12T17:42:54;21.60;99.90
52387;DHT22;38317;53.084;6.960;2022-09-12T17:45:21;21.50;99.90
52387;DHT22;38317;53.084;6.960;2022-09-12T17:47:47;21.50;99.90
52387;DHT22;38317;53.084;6.960;2022-09-12T17:50:13;21.40;99.90
52387;DHT22;38317;53.084;6.960;2022-09-12T17:52:38;21.40;99.90
52387;DHT22;38317;53.084;6.960;2022-09-12T17:55:04;21.30;99.90
52387;DHT22;38317;53.084;6.960;2022-09-12T17:57:30;21.30;99.90
52387;DHT22;38317;53.084;6.960;2022-09-12T17:59:56;21.20;99.90
52387;DHT22;38317;53.084;6.960;2022-09-12T18:02:22;21.20;99.90
52387;DHT22;38317;53.084;6.960;2022-09-12T18:04:47;21.10;99.90
52387;DHT22;38317;53.084;6.960;2022-09-12T18:07:15;21.10;99.90
52387;DHT22;38317;53.084;6.960;2022-09-12T18:09:43;21.00;99.90
52387;DHT22;38317;53.084;6.960;2022-09-12T18:12:09;20.90;99.90
52387;DHT22;38317;53.084;6.960;2022-09-12T18:14:35;20.90;99.90
52387;DHT22;38317;53.084;6.960;2022-09-12T18:17:03;20.80;99.90
52387;DHT22;38317;53.084;6.960;2022-09-12T18:19:31;20.80;99.90
52387;DHT22;38317;53.084;6.960;2022-09-12T18:21:57;20.80;99.90